Terminal Aerodrome Forecast
Issued by NWS

Home | Current Version | Previous Version | Graphics & Text | Print | Product List | Glossary On
Versions: 1 2 3 4 5 6 7 8 9 10 11 12
000
FTUS43 KMPX 201139
TAFRNH
TAF
KRNH 201139Z 2012/2112 22004KT 6SM BR BKN150
      TEMPO 2012/2013 3SM BR SCT004
     FM201600 26008KT P6SM SCT050 BKN150
     FM210000 25005KT P6SM SCT200=

USA.gov is the U.S. government's official web portal to all federal, state and local government web resources and services.